今朝の成田(2017/05/02)

JJP12/JA16JJ(A320)

CPA524/B-HNN(B773)

ANA818/JA829A(B788)

JJP40/JA07JJ(A320)

*JJP501/JA20JJ(A320)

AMX058/N783AM(B788)

JAL724/JA865J(B789)

VNL100/JA02VA(A320)

THA640/HS-TUC(A388)

*JJP101/JA18JJ(A320)

FDX5391/JA859FD(B77L)

ANA814/JA623A(B763) with winglet

FDX15/N854FD(B77L)

NCA159/JA14KZ(B748)

JAL740/JA845J(B788)

*JJP401/JA21JJ(A320)

ANA832/JA617A(B763)

NCA109/JA18KZ(B748)

JAL752/JA841J(B788)

ANA179.JA828A(B788)

ANA9354/JA871A(B789)

JAL726/JA863J(B789)

*JJP301/JA02JJ(A320)

*UPS128/N311UP(B763) with winglet

FDX60/N862FD(B77L)

HVN310/VN-A865(B789)

ACI800/F-OJSE(A332)

RJAA 012100Z 33003KT CAVOK 10/08 Q1021 NOSIG RMK A3015

RJAA 012200Z 36006KT CAVOK 14/06 Q1021 NOSIG RMK A3017

今朝の成田は晴れているようです。